createdAt,value
2017-10-10T00:01:47.149Z,90.10
2017-10-10T00:04:14.867Z,90.29
2017-10-10T00:06:42.617Z,90.02
2017-10-10T00:09:10.402Z,88.54
2017-10-10T00:11:38.072Z,87.68
2017-10-10T00:14:05.888Z,85.46
2017-10-10T00:16:33.657Z,87.57
2017-10-10T00:19:01.387Z,88.22
2017-10-10T00:21:29.138Z,89.46
2017-10-10T00:23:56.826Z,89.38
2017-10-10T00:26:24.536Z,89.21
2017-10-10T00:28:52.305Z,89.68
2017-10-10T00:31:20.919Z,89.76
2017-10-10T00:33:48.756Z,89.61
2017-10-10T00:36:16.476Z,89.82
2017-10-10T00:38:44.223Z,89.80
2017-10-10T00:41:11.993Z,90.74
2017-10-10T00:43:39.748Z,90.64
2017-10-10T00:46:07.505Z,90.33
2017-10-10T00:48:35.253Z,90.02
2017-10-10T00:51:03.069Z,89.84
2017-10-10T00:53:30.844Z,89.77
2017-10-10T00:55:58.586Z,90.50
2017-10-10T00:58:26.369Z,90.50
2017-10-10T01:00:54.184Z,90.61
2017-10-10T01:03:21.897Z,90.63
2017-10-10T01:05:49.629Z,90.79
2017-10-10T01:08:17.325Z,90.42
2017-10-10T01:10:45.052Z,90.12
2017-10-10T01:13:12.861Z,90.63
2017-10-10T01:15:40.592Z,90.06
2017-10-10T01:18:08.363Z,89.68
2017-10-10T01:20:37.102Z,89.49
2017-10-10T01:23:04.887Z,90.02
2017-10-10T01:25:32.676Z,90.37
2017-10-10T01:28:00.524Z,90.16
2017-10-10T01:30:28.274Z,89.98
2017-10-10T01:32:56.137Z,89.91
2017-10-10T01:35:23.913Z,90.25
2017-10-10T01:37:51.766Z,90.07
2017-10-10T01:40:19.551Z,89.69
2017-10-10T01:42:47.321Z,89.96
2017-10-10T01:45:15.091Z,89.90
2017-10-10T01:47:42.759Z,89.86
2017-10-10T01:50:10.524Z,90.21
2017-10-10T01:52:38.311Z,90.33
2017-10-10T01:55:06.039Z,90.47
2017-10-10T01:57:33.784Z,90.27
2017-10-10T02:00:01.502Z,90.31
2017-10-10T02:02:29.238Z,89.96
2017-10-10T02:04:56.976Z,89.74
2017-10-10T02:07:24.820Z,89.97
2017-10-10T02:09:52.502Z,89.96
2017-10-10T02:12:20.175Z,89.67
2017-10-10T02:14:47.881Z,90.29
2017-10-10T02:17:15.539Z,89.85
2017-10-10T02:19:43.371Z,90.41
2017-10-10T02:22:11.121Z,89.71
2017-10-10T02:24:38.812Z,88.45
2017-10-10T02:27:06.525Z,89.23
2017-10-10T02:29:34.286Z,89.91
2017-10-10T02:32:02.021Z,90.09
2017-10-10T02:34:29.669Z,90.26
2017-10-10T02:36:57.437Z,90.02
2017-10-10T02:39:25.191Z,90.44
2017-10-10T02:41:52.914Z,90.43
2017-10-10T02:44:20.663Z,91.14
2017-10-10T02:46:48.453Z,91.04
2017-10-10T02:49:16.133Z,90.79
2017-10-10T02:51:43.896Z,90.63
2017-10-10T02:54:11.620Z,90.63
2017-10-10T02:56:39.281Z,90.93
2017-10-10T02:59:06.987Z,90.98
2017-10-10T03:01:34.699Z,90.82
2017-10-10T03:04:02.358Z,90.83
2017-10-10T03:06:30.374Z,90.70
2017-10-10T03:08:58.087Z,90.68
2017-10-10T03:11:25.806Z,91.08
2017-10-10T03:13:53.529Z,90.57
2017-10-10T03:16:21.255Z,90.28
2017-10-10T03:18:48.917Z,89.96
2017-10-10T03:21:16.628Z,90.76
2017-10-10T03:23:44.290Z,90.33
2017-10-10T03:26:11.985Z,90.43
2017-10-10T03:28:39.699Z,89.74
2017-10-10T03:31:07.427Z,89.92
2017-10-10T03:33:35.187Z,90.29
2017-10-10T03:36:02.895Z,90.02
2017-10-10T03:38:30.627Z,89.73
2017-10-10T03:40:58.392Z,89.95
2017-10-10T03:43:26.127Z,89.88
2017-10-10T03:45:53.863Z,89.90
2017-10-10T03:48:21.713Z,89.96
2017-10-10T03:50:49.463Z,89.88
2017-10-10T03:53:17.160Z,89.71
2017-10-10T03:55:44.886Z,89.53
2017-10-10T03:58:12.685Z,89.31
2017-10-10T04:00:40.413Z,90.52
2017-10-10T04:03:08.099Z,90.34
2017-10-10T04:05:35.867Z,89.79
2017-10-10T04:08:03.596Z,90.43
2017-10-10T04:10:31.324Z,90.21
2017-10-10T04:12:59.050Z,90.57
2017-10-10T04:15:26.742Z,90.66
2017-10-10T04:17:54.454Z,90.64
2017-10-10T04:20:22.132Z,90.11
2017-10-10T04:22:49.851Z,90.24
2017-10-10T04:25:18.937Z,90.16
2017-10-10T04:27:46.670Z,90.04
2017-10-10T04:30:14.393Z,90.17
2017-10-10T04:35:15.928Z,91.14
2017-10-10T04:37:43.599Z,91.16
2017-10-10T04:40:11.327Z,91.37
2017-10-10T04:42:39.033Z,90.66
2017-10-10T04:45:06.717Z,91.35
2017-10-10T04:47:34.584Z,91.07
2017-10-10T04:50:02.334Z,90.74
2017-10-10T04:52:30.072Z,90.62
2017-10-10T04:54:57.746Z,90.50
2017-10-10T04:57:25.512Z,91.18
2017-10-10T04:59:53.267Z,91.44
2017-10-10T05:02:21.109Z,91.19
2017-10-10T05:04:49.076Z,91.34
2017-10-10T05:07:16.820Z,91.48
2017-10-10T05:09:44.559Z,90.94
2017-10-10T05:12:12.358Z,90.65
2017-10-10T05:14:40.153Z,91.18
2017-10-10T05:17:07.863Z,91.57
2017-10-10T05:19:36.525Z,91.00
2017-10-10T05:22:04.373Z,90.80
2017-10-10T05:24:32.060Z,90.88
2017-10-10T05:26:59.780Z,91.63
2017-10-10T05:29:27.555Z,91.26
2017-10-10T05:31:55.273Z,91.56
2017-10-10T05:34:23.083Z,91.14
2017-10-10T05:36:52.013Z,91.10
2017-10-10T05:39:19.789Z,91.28
2017-10-10T05:41:47.511Z,90.56
2017-10-10T05:44:15.256Z,90.84
2017-10-10T05:46:42.974Z,90.97
2017-10-10T05:49:10.705Z,90.96
2017-10-10T05:51:38.467Z,90.59
2017-10-10T05:54:06.174Z,90.90
2017-10-10T05:56:33.923Z,90.87
2017-10-10T05:59:01.715Z,90.77
2017-10-10T06:01:29.382Z,91.09
2017-10-10T06:03:57.189Z,91.95
2017-10-10T06:06:25.016Z,91.83
2017-10-10T06:08:52.721Z,91.42
2017-10-10T06:11:20.470Z,91.08
2017-10-10T06:13:48.278Z,91.04
2017-10-10T06:16:16.025Z,90.88
2017-10-10T06:18:43.909Z,91.10
2017-10-10T06:21:11.607Z,90.60
2017-10-10T06:23:39.321Z,90.74
2017-10-10T06:26:07.083Z,90.77
2017-10-10T06:28:34.879Z,90.93
2017-10-10T06:31:02.614Z,90.57
2017-10-10T06:33:30.388Z,90.17
2017-10-10T06:35:58.241Z,90.22
2017-10-10T06:38:26.013Z,90.25
2017-10-10T06:40:54.280Z,90.39
2017-10-10T06:43:21.983Z,89.97
2017-10-10T06:45:49.710Z,89.60
2017-10-10T06:48:17.458Z,89.34
2017-10-10T06:50:45.237Z,89.44
2017-10-10T06:53:13.002Z,89.16
2017-10-10T06:55:40.730Z,88.75
2017-10-10T06:58:09.094Z,87.35
2017-10-10T07:00:36.869Z,87.30
2017-10-10T07:03:04.631Z,87.93
2017-10-10T07:05:32.485Z,88.29
2017-10-10T07:08:00.259Z,86.26
2017-10-10T07:10:28.098Z,84.29
2017-10-10T07:12:55.825Z,83.53
2017-10-10T07:15:23.637Z,82.77
2017-10-10T07:17:51.415Z,81.46
2017-10-10T07:20:19.288Z,79.27
2017-10-10T07:22:47.088Z,78.08
2017-10-10T07:25:14.834Z,76.22
2017-10-10T07:27:42.588Z,75.90
2017-10-10T07:30:10.290Z,74.36
2017-10-10T07:32:38.060Z,74.53
2017-10-10T07:35:05.878Z,74.28
2017-10-10T07:37:33.663Z,75.82
2017-10-10T07:40:01.485Z,76.60
2017-10-10T07:42:29.476Z,75.97
2017-10-10T07:44:57.210Z,76.34
2017-10-10T07:47:25.037Z,76.00
2017-10-10T07:49:52.845Z,76.46
2017-10-10T07:52:20.637Z,76.89
2017-10-10T07:54:48.489Z,74.57
2017-10-10T07:57:16.258Z,72.12
2017-10-10T07:59:44.269Z,71.90
2017-10-10T08:02:12.082Z,72.32
2017-10-10T08:04:39.919Z,71.06
2017-10-10T08:07:07.700Z,72.09
2017-10-10T08:09:35.509Z,71.35
2017-10-10T08:12:03.332Z,71.28
2017-10-10T08:14:31.109Z,72.00
2017-10-10T08:16:58.893Z,71.76
2017-10-10T08:19:27.690Z,72.45
2017-10-10T08:21:55.451Z,72.14
2017-10-10T08:24:23.241Z,73.10
2017-10-10T08:26:50.966Z,71.99
2017-10-10T08:29:18.687Z,71.40
2017-10-10T08:31:46.516Z,70.37
2017-10-10T08:34:14.281Z,67.67
2017-10-10T08:36:41.974Z,65.72
2017-10-10T08:39:09.789Z,63.93
2017-10-10T08:41:37.648Z,66.17
2017-10-10T08:44:05.451Z,63.63
2017-10-10T08:46:33.254Z,61.77
2017-10-10T08:49:01.054Z,63.62
2017-10-10T08:51:28.804Z,66.67
2017-10-10T08:53:56.588Z,68.71
2017-10-10T08:56:24.379Z,70.94
2017-10-10T08:58:52.047Z,72.20
2017-10-10T09:01:19.919Z,71.22
2017-10-10T09:03:47.633Z,70.63
2017-10-10T09:06:15.379Z,69.78
2017-10-10T09:08:43.087Z,69.57
2017-10-10T09:11:10.957Z,69.70
2017-10-10T09:13:38.730Z,69.22
2017-10-10T09:16:06.521Z,68.34
2017-10-10T09:18:34.278Z,67.64
2017-10-10T09:21:02.536Z,66.84
2017-10-10T09:23:30.386Z,69.37
2017-10-10T09:25:58.106Z,68.82
2017-10-10T09:28:25.851Z,67.94
2017-10-10T09:30:53.525Z,66.77
2017-10-10T09:33:21.286Z,66.80
2017-10-10T09:35:49.058Z,65.04
2017-10-10T09:38:16.817Z,66.08
2017-10-10T09:40:44.539Z,67.29
2017-10-10T09:43:13.098Z,66.17
2017-10-10T09:45:40.789Z,64.73
2017-10-10T09:48:08.455Z,66.88
2017-10-10T09:50:36.189Z,61.44
2017-10-10T09:53:03.922Z,60.57
2017-10-10T09:55:31.670Z,60.02
2017-10-10T09:57:59.717Z,62.46
2017-10-10T10:00:27.408Z,62.16
2017-10-10T10:02:55.113Z,61.14
2017-10-10T10:05:22.868Z,59.54
2017-10-10T10:07:50.629Z,63.51
2017-10-10T10:10:18.439Z,60.03
2017-10-10T10:12:46.198Z,59.34
2017-10-10T10:15:13.999Z,60.23
2017-10-10T10:17:41.733Z,60.26
2017-10-10T10:20:09.553Z,58.76
2017-10-10T10:22:37.266Z,56.63
2017-10-10T10:25:05.026Z,57.74
2017-10-10T10:27:32.759Z,54.25
2017-10-10T10:30:00.507Z,57.33
2017-10-10T10:32:28.358Z,55.17
2017-10-10T10:34:56.152Z,56.69
2017-10-10T10:37:24.218Z,54.87
2017-10-10T10:39:51.979Z,55.38
2017-10-10T10:42:19.783Z,58.68
2017-10-10T10:44:47.500Z,54.88
2017-10-10T10:47:16.003Z,55.42
2017-10-10T10:49:43.737Z,50.93
2017-10-10T10:52:11.506Z,56.86
2017-10-10T10:54:39.275Z,59.60
2017-10-10T10:57:06.982Z,52.38
2017-10-10T10:59:34.807Z,53.67
2017-10-10T11:02:02.554Z,52.31
2017-10-10T11:04:30.288Z,51.16
2017-10-10T11:06:58.085Z,50.24
2017-10-10T11:09:25.852Z,50.18
2017-10-10T11:11:53.571Z,48.77
2017-10-10T11:14:21.968Z,49.60
2017-10-10T11:16:49.839Z,49.55
2017-10-10T11:19:18.537Z,49.86
2017-10-10T11:21:46.344Z,50.16
2017-10-10T11:24:14.050Z,50.88
2017-10-10T11:26:42.564Z,49.22
2017-10-10T11:29:10.392Z,48.35
2017-10-10T11:31:38.275Z,49.31
2017-10-10T11:34:05.991Z,49.37
2017-10-10T11:36:33.936Z,49.02
2017-10-10T11:39:02.810Z,49.97
2017-10-10T11:41:30.692Z,49.63
2017-10-10T11:43:58.433Z,51.07
2017-10-10T11:46:26.271Z,50.13
2017-10-10T11:48:54.202Z,49.83
2017-10-10T11:51:22.083Z,49.62
2017-10-10T11:53:49.982Z,49.59
2017-10-10T11:56:18.308Z,49.01
2017-10-10T11:58:46.088Z,48.62
2017-10-10T12:01:14.088Z,50.00
2017-10-10T12:03:41.836Z,48.74
2017-10-10T12:06:09.937Z,49.77
2017-10-10T12:08:37.642Z,50.22
2017-10-10T12:11:06.258Z,51.29
2017-10-10T12:13:34.071Z,50.63
2017-10-10T12:16:01.918Z,51.12
2017-10-10T12:18:29.693Z,51.51
2017-10-10T12:20:57.476Z,49.99
2017-10-10T12:23:25.240Z,50.72
2017-10-10T12:25:52.997Z,51.20
2017-10-10T12:28:20.786Z,51.66
2017-10-10T12:30:48.542Z,52.35
2017-10-10T12:33:16.308Z,51.36
2017-10-10T12:35:44.138Z,51.37
2017-10-10T12:38:11.927Z,51.43
2017-10-10T12:40:39.681Z,52.14
2017-10-10T12:43:07.376Z,53.02
2017-10-10T12:45:35.166Z,52.63
2017-10-10T12:48:02.879Z,52.94
2017-10-10T12:50:30.666Z,53.53
2017-10-10T12:52:58.403Z,53.64
2017-10-10T12:55:26.326Z,53.58
2017-10-10T12:57:54.082Z,53.20
2017-10-10T13:00:21.800Z,53.47
2017-10-10T13:02:49.601Z,53.40
2017-10-10T13:05:17.324Z,52.81
2017-10-10T13:07:45.135Z,51.98
2017-10-10T13:10:13.361Z,52.97
2017-10-10T13:12:41.179Z,52.05
2017-10-10T13:15:08.965Z,54.12
2017-10-10T13:17:37.407Z,52.01
2017-10-10T13:20:05.255Z,53.50
2017-10-10T13:22:33.056Z,52.71
2017-10-10T13:25:00.929Z,52.27
2017-10-10T13:27:28.697Z,52.98
2017-10-10T13:29:56.531Z,52.52
2017-10-10T13:32:24.980Z,53.14
2017-10-10T13:34:53.664Z,53.51
2017-10-10T13:37:21.442Z,54.55
2017-10-10T13:39:49.256Z,55.44
2017-10-10T13:42:18.206Z,56.19
2017-10-10T13:44:45.995Z,55.13
2017-10-10T13:47:13.766Z,59.78
2017-10-10T13:49:41.540Z,59.05
2017-10-10T13:52:09.368Z,60.28
2017-10-10T13:54:37.115Z,62.15
2017-10-10T13:57:04.966Z,58.22
2017-10-10T13:59:33.018Z,59.85
2017-10-10T14:02:01.903Z,56.34
2017-10-10T14:04:29.760Z,55.87
2017-10-10T14:06:57.566Z,59.09
2017-10-10T14:09:26.338Z,57.41
2017-10-10T14:11:54.364Z,61.32
2017-10-10T14:14:22.212Z,62.93
2017-10-10T14:16:50.349Z,64.90
2017-10-10T14:19:19.043Z,64.64
2017-10-10T14:21:46.949Z,64.31
2017-10-10T14:24:16.033Z,65.56
2017-10-10T14:26:43.833Z,66.14
2017-10-10T14:29:11.674Z,65.45
2017-10-10T14:31:39.521Z,65.21
2017-10-10T14:34:08.740Z,65.93
2017-10-10T14:36:36.849Z,67.79
2017-10-10T14:39:04.806Z,67.04
2017-10-10T14:41:32.708Z,67.30
2017-10-10T14:44:00.741Z,68.12
2017-10-10T14:46:29.346Z,66.42
2017-10-10T14:48:57.186Z,65.81
2017-10-10T14:51:26.873Z,67.50
2017-10-10T14:53:54.702Z,67.48
2017-10-10T14:56:22.456Z,70.71
2017-10-10T14:58:50.249Z,68.77
2017-10-10T15:01:18.051Z,69.25
2017-10-10T15:03:46.186Z,68.35
2017-10-10T15:06:13.977Z,69.60
2017-10-10T15:08:41.704Z,69.70
2017-10-10T15:11:09.542Z,68.57
2017-10-10T15:13:37.327Z,69.00
2017-10-10T15:16:05.176Z,68.81
2017-10-10T15:18:32.981Z,69.05
2017-10-10T15:21:00.736Z,64.75
2017-10-10T15:23:28.613Z,62.65
2017-10-10T15:25:56.323Z,64.78
2017-10-10T15:28:24.054Z,62.60
2017-10-10T15:30:51.867Z,62.13
2017-10-10T15:33:19.656Z,60.91
2017-10-10T15:35:47.441Z,62.42
2017-10-10T15:38:15.141Z,63.03
2017-10-10T15:40:42.910Z,65.87
2017-10-10T15:43:10.710Z,67.19
2017-10-10T15:45:38.541Z,69.73
2017-10-10T15:48:06.298Z,70.32
2017-10-10T15:50:34.019Z,70.25
2017-10-10T15:53:02.756Z,69.39
2017-10-10T15:55:31.062Z,68.33
2017-10-10T15:57:58.889Z,67.61
2017-10-10T16:00:26.656Z,64.95
2017-10-10T16:02:54.418Z,68.58
2017-10-10T16:05:22.167Z,69.57
2017-10-10T16:07:49.915Z,71.91
2017-10-10T16:10:18.049Z,72.61
2017-10-10T16:12:45.819Z,73.96
2017-10-10T16:15:13.871Z,72.76
2017-10-10T16:17:41.585Z,71.80
2017-10-10T16:20:09.355Z,72.11
2017-10-10T16:22:37.065Z,72.73
2017-10-10T16:25:04.852Z,73.04
2017-10-10T16:27:32.636Z,72.89
2017-10-10T16:30:00.488Z,72.47
2017-10-10T16:32:28.314Z,73.26
2017-10-10T16:34:56.177Z,74.50
2017-10-10T16:37:23.961Z,74.80
2017-10-10T16:39:51.731Z,76.94
2017-10-10T16:42:19.488Z,77.80
2017-10-10T16:44:47.277Z,76.05
2017-10-10T16:47:15.699Z,77.41
2017-10-10T16:49:43.462Z,75.36
2017-10-10T16:52:11.255Z,75.90
2017-10-10T16:54:39.780Z,76.09
2017-10-10T16:57:07.579Z,77.31
2017-10-10T16:59:35.381Z,77.56
2017-10-10T17:02:03.118Z,76.86
2017-10-10T17:04:30.924Z,76.99
2017-10-10T17:06:58.733Z,77.25
2017-10-10T17:09:26.599Z,78.04
2017-10-10T17:11:54.595Z,77.95
2017-10-10T17:14:22.372Z,76.85
2017-10-10T17:16:50.159Z,78.28
2017-10-10T17:19:18.995Z,77.81
2017-10-10T17:21:46.829Z,78.36
2017-10-10T17:24:14.713Z,77.22
2017-10-10T17:26:42.751Z,77.35
2017-10-10T17:29:10.620Z,77.45
2017-10-10T17:31:38.419Z,76.96
2017-10-10T17:34:06.418Z,77.52
2017-10-10T17:36:34.238Z,78.20
2017-10-10T17:39:02.256Z,79.02
2017-10-10T17:41:30.089Z,79.79
2017-10-10T17:43:57.881Z,80.15
2017-10-10T17:46:25.685Z,78.92
2017-10-10T17:48:53.713Z,78.85
2017-10-10T17:51:21.805Z,79.82
2017-10-10T17:53:49.660Z,79.18
2017-10-10T17:56:17.588Z,80.23
2017-10-10T17:58:46.523Z,81.03
2017-10-10T18:01:14.636Z,81.08
2017-10-10T18:03:42.550Z,80.96
2017-10-10T18:06:10.852Z,80.97
2017-10-10T18:08:38.877Z,81.22
2017-10-10T18:11:06.774Z,82.02
2017-10-10T18:13:35.157Z,82.64
2017-10-10T18:16:04.268Z,82.71
2017-10-10T18:18:32.481Z,82.14
2017-10-10T18:21:01.800Z,82.24
2017-10-10T18:23:30.843Z,82.20
2017-10-10T18:25:58.753Z,82.72
2017-10-10T18:28:26.615Z,81.68
2017-10-10T18:30:54.431Z,81.50
2017-10-10T18:33:22.198Z,83.22
2017-10-10T18:35:50.218Z,83.01
2017-10-10T18:38:18.020Z,83.83
2017-10-10T18:40:45.919Z,83.69
2017-10-10T18:43:13.828Z,84.10
2017-10-10T18:45:41.552Z,84.65
2017-10-10T18:48:09.367Z,84.25
2017-10-10T18:50:37.124Z,84.16
2017-10-10T18:53:04.949Z,84.91
2017-10-10T18:55:32.742Z,84.17
2017-10-10T18:58:00.523Z,83.86
2017-10-10T19:00:28.593Z,84.02
2017-10-10T19:02:56.633Z,84.25
2017-10-10T19:05:26.260Z,84.78
2017-10-10T19:07:54.534Z,84.09
2017-10-10T19:10:26.398Z,84.67
2017-10-10T19:12:54.590Z,85.07
2017-10-10T19:15:22.541Z,85.03
2017-10-10T19:17:51.233Z,85.24
2017-10-10T19:20:19.167Z,85.15
2017-10-10T19:22:47.097Z,86.65
2017-10-10T19:25:15.212Z,86.10
2017-10-10T19:27:43.324Z,85.50
2017-10-10T19:30:11.865Z,85.93
2017-10-10T19:32:39.947Z,85.89
2017-10-10T19:35:08.771Z,85.88
2017-10-10T19:37:37.174Z,86.55
2017-10-10T19:40:05.682Z,86.52
2017-10-10T19:42:34.820Z,86.72
2017-10-10T19:45:02.933Z,86.49
2017-10-10T19:47:31.050Z,86.22
2017-10-10T19:49:59.898Z,86.03
2017-10-10T19:52:28.805Z,85.71
2017-10-10T19:54:59.282Z,86.02
2017-10-10T19:57:28.168Z,86.89
2017-10-10T19:59:56.083Z,87.94
2017-10-10T20:02:23.909Z,87.67
2017-10-10T20:04:51.969Z,86.95
2017-10-10T20:07:20.968Z,87.03
2017-10-10T20:09:48.982Z,87.58
2017-10-10T20:12:19.688Z,87.25
2017-10-10T20:14:47.472Z,87.33
2017-10-10T20:17:15.329Z,86.59
2017-10-10T20:19:43.186Z,86.89
2017-10-10T20:22:10.945Z,87.71
2017-10-10T20:24:38.782Z,87.06
2017-10-10T20:27:07.277Z,87.00
2017-10-10T20:29:36.003Z,87.96
2017-10-10T20:32:03.936Z,87.76
2017-10-10T20:34:31.788Z,88.24
2017-10-10T20:36:59.565Z,87.70
2017-10-10T20:39:27.554Z,87.92
2017-10-10T20:41:55.491Z,87.58
2017-10-10T20:44:23.447Z,87.68
2017-10-10T20:46:51.368Z,87.52
2017-10-10T20:49:19.598Z,87.70
2017-10-10T20:51:47.458Z,88.12
2017-10-10T20:54:15.232Z,87.48
2017-10-10T20:56:42.986Z,88.69
2017-10-10T20:59:11.059Z,88.69
2017-10-10T21:01:38.855Z,88.12
2017-10-10T21:04:06.723Z,88.09
2017-10-10T21:06:34.535Z,88.13
2017-10-10T21:09:02.550Z,89.00
2017-10-10T21:11:30.475Z,88.46
2017-10-10T21:13:58.173Z,87.98
2017-10-10T21:16:26.835Z,88.47
2017-10-10T21:18:54.648Z,88.61
2017-10-10T21:21:22.380Z,89.33
2017-10-10T21:23:50.159Z,89.21
2017-10-10T21:26:17.902Z,88.95
2017-10-10T21:28:45.700Z,87.96
2017-10-10T21:31:13.418Z,87.88
2017-10-10T21:33:41.260Z,87.83
2017-10-10T21:36:09.153Z,87.88
2017-10-10T21:38:36.889Z,88.15
2017-10-10T21:41:04.665Z,88.17
2017-10-10T21:43:32.386Z,88.35
2017-10-10T21:46:00.246Z,87.79
2017-10-10T21:48:27.983Z,88.62
2017-10-10T21:50:55.754Z,89.05
2017-10-10T21:53:23.564Z,88.06
2017-10-10T21:55:51.443Z,88.44
2017-10-10T21:58:19.171Z,88.78
2017-10-10T22:00:46.982Z,88.95
2017-10-10T22:03:14.765Z,88.32
2017-10-10T22:05:43.502Z,87.89
2017-10-10T22:08:11.264Z,87.88
2017-10-10T22:10:39.020Z,89.13
2017-10-10T22:13:06.692Z,88.98
2017-10-10T22:15:34.402Z,89.47
2017-10-10T22:18:02.168Z,89.00
2017-10-10T22:20:29.989Z,88.55
2017-10-10T22:22:57.779Z,88.79
2017-10-10T22:25:25.561Z,88.67
2017-10-10T22:27:53.312Z,88.75
2017-10-10T22:30:21.032Z,88.92
2017-10-10T22:32:48.849Z,89.24
2017-10-10T22:35:16.583Z,89.05
2017-10-10T22:37:44.345Z,89.68
2017-10-10T22:40:12.217Z,88.98
2017-10-10T22:42:39.922Z,88.82
2017-10-10T22:45:07.639Z,88.84
2017-10-10T22:47:35.404Z,88.79
2017-10-10T22:50:03.084Z,89.27
2017-10-10T22:52:30.796Z,89.04
2017-10-10T22:54:58.699Z,88.94
2017-10-10T22:57:26.470Z,89.46
2017-10-10T22:59:54.272Z,89.38
2017-10-10T23:02:22.006Z,89.41
2017-10-10T23:04:49.685Z,89.43
2017-10-10T23:07:17.422Z,89.38
2017-10-10T23:09:45.147Z,89.48
2017-10-10T23:12:12.868Z,89.61
2017-10-10T23:14:40.620Z,90.01
2017-10-10T23:17:08.362Z,90.26
2017-10-10T23:19:36.058Z,89.91
2017-10-10T23:22:03.817Z,89.94
2017-10-10T23:24:31.549Z,90.14
2017-10-10T23:26:59.287Z,90.27
2017-10-10T23:29:27.059Z,90.32
2017-10-10T23:31:54.777Z,90.21
2017-10-10T23:34:22.491Z,90.58
2017-10-10T23:36:50.252Z,90.72
2017-10-10T23:39:17.960Z,89.90
2017-10-10T23:41:45.946Z,90.36
2017-10-10T23:44:13.658Z,90.29
2017-10-10T23:46:41.461Z,90.34
2017-10-10T23:49:09.132Z,89.85
2017-10-10T23:51:37.402Z,89.47
2017-10-10T23:54:05.070Z,89.34
2017-10-10T23:56:32.824Z,90.62
2017-10-10T23:59:00.550Z,90.15
